Time;durP1;ratioP1;P1;durP2;ratioP2;P2;SDS_P1;SDS_P2;PMS_P1;PMS_P2;Temp;Humidity;BMP_temperature;BMP_pressure;BME280_temperature;BME280_humidity;BME280_pressure;Samples;Min_cycle;Max_cycle;Signal;HPM_P1;HPM_P2
2023/10/19 00:02:15;;;;;;;0.20;0.20;;;17.40;99.90;;;;;;5014890;28;20044;-76
2023/10/19 00:04:41;;;;;;;0.15;0.15;;;17.30;99.90;;;;;;5014909;28;20030;-75
2023/10/19 00:07:08;;;;;;;1.10;0.60;;;17.20;99.90;;;;;;5014780;28;20022;-76
2023/10/19 00:09:37;;;;;;;0.22;0.17;;;17.20;99.90;;;;;;5014961;28;20037;-76
2023/10/19 00:12:06;;;;;;;0.10;0.10;;;17.20;99.90;;;;;;5014393;28;20463;-76
2023/10/19 00:14:32;;;;;;;0.00;0.00;;;17.10;99.90;;;;;;5014751;28;20034;-76
2023/10/19 00:17:05;;;;;;;0.30;0.15;;;17.10;99.90;;;;;;5014570;28;20033;-76
2023/10/19 00:19:38;;;;;;;0.20;0.20;;;17.10;99.90;;;;;;5014769;28;20509;-77
2023/10/19 00:22:08;;;;;;;0.00;0.00;;;17.20;99.90;;;;;;5014764;28;20037;-77
2023/10/19 00:24:35;;;;;;;0.40;0.20;;;17.00;99.90;;;;;;5014450;28;20022;-77
2023/10/19 00:27:15;;;;;;;0.00;0.00;;;17.00;99.90;;;;;;5014231;28;20026;-77
2023/10/19 00:29:49;;;;;;;0.15;0.15;;;16.90;99.90;;;;;;5013008;28;20068;-77
2023/10/19 00:32:15;;;;;;;0.52;0.40;;;17.00;99.90;;;;;;5013031;28;20033;-76
2023/10/19 00:34:46;;;;;;;0.60;0.35;;;16.90;99.90;;;;;;5012925;28;20057;-77
2023/10/19 00:37:18;;;;;;;0.52;0.43;;;17.00;99.90;;;;;;5014389;28;20468;-75
2023/10/19 00:39:50;;;;;;;0.20;0.20;;;17.00;99.90;;;;;;5029479;28;20117;-74
2023/10/19 00:42:20;;;;;;;0.00;0.00;;;17.00;99.90;;;;;;5014324;28;20033;-75
2023/10/19 00:44:50;;;;;;;0.00;0.00;;;17.10;99.90;;;;;;5012749;28;20069;-75
2023/10/19 00:47:18;;;;;;;0.00;0.00;;;17.10;99.90;;;;;;5014119;28;20382;-75
2023/10/19 00:49:48;;;;;;;0.10;0.10;;;16.90;99.90;;;;;;5014066;28;20426;-75
2023/10/19 00:57:19;;;;;;;0.00;0.00;;;16.90;99.90;;;;;;5000053;28;20379;-74
2023/10/19 01:00:00;;;;;;;0.10;0.10;;;16.90;99.90;;;;;;5013984;28;20038;-75
2023/10/19 01:05:00;;;;;;;0.10;0.10;;;16.90;99.90;;;;;;5029174;28;20026;-77
2023/10/19 01:07:30;;;;;;;0.00;0.00;;;16.90;99.90;;;;;;5012139;28;20117;-77
2023/10/19 01:10:03;;;;;;;1.08;0.35;;;16.90;99.90;;;;;;5013532;28;20470;-77
2023/10/19 01:15:07;;;;;;;0.10;0.10;;;16.90;99.90;;;;;;5013824;28;20029;-77
2023/10/19 01:17:38;;;;;;;0.00;0.00;;;16.80;99.90;;;;;;5013334;28;20026;-77
2023/10/19 01:20:22;;;;;;;0.10;0.10;;;16.80;99.90;;;;;;5013836;28;20080;-77
2023/10/19 01:22:50;;;;;;;1.63;0.55;;;16.90;99.90;;;;;;5013453;28;20041;-77
2023/10/19 01:25:24;;;;;;;1.67;0.10;;;16.90;99.90;;;;;;5012125;28;20105;-77
2023/10/19 01:27:56;;;;;;;0.20;0.20;;;16.90;99.90;;;;;;5011968;28;20030;-77
2023/10/19 01:30:22;;;;;;;;;;;16.90;99.90;;;;;;5029366;28;20024;-77
2023/10/19 01:32:47;;;;;;;0.45;0.45;;;16.90;99.90;;;;;;5007452;28;20382;-76
2023/10/19 01:35:14;;;;;;;1.05;0.43;;;16.90;99.90;;;;;;5013020;28;20022;-77
2023/10/19 01:37:40;;;;;;;0.10;0.10;;;16.90;99.90;;;;;;5011105;28;20042;-77
2023/10/19 01:40:06;;;;;;;0.93;0.82;;;16.90;99.90;;;;;;5011440;28;20398;-77
2023/10/19 01:42:32;;;;;;;0.20;0.20;;;16.80;99.90;;;;;;5013014;28;20050;-76
2023/10/19 01:44:59;;;;;;;0.63;0.20;;;16.80;99.90;;;;;;5013037;28;20036;-76
2023/10/19 01:47:25;;;;;;;1.20;0.68;;;16.80;99.90;;;;;;5013142;28;20029;-77
2023/10/19 01:49:52;;;;;;;0.08;0.08;;;16.80;99.90;;;;;;5012892;28;20040;-77
2023/10/19 01:52:18;;;;;;;0.00;0.00;;;16.70;99.90;;;;;;5013200;28;20053;-77
2023/10/19 01:54:45;;;;;;;0.15;0.15;;;16.70;99.90;;;;;;5011618;28;20080;-77
2023/10/19 01:57:12;;;;;;;0.00;0.00;;;16.70;99.90;;;;;;5011513;28;20029;-77
2023/10/19 01:59:38;;;;;;;0.28;0.28;;;16.70;99.90;;;;;;5011279;28;20034;-77
2023/10/19 02:02:04;;;;;;;0.20;0.05;;;16.70;99.90;;;;;;5023585;28;20163;-77
2023/10/19 02:04:34;;;;;;;0.00;0.00;;;16.60;99.90;;;;;;5031255;28;20418;-74
2023/10/19 02:07:01;;;;;;;1.02;0.68;;;16.70;99.90;;;;;;5031218;28;20017;-77
2023/10/19 02:09:29;;;;;;;0.00;0.00;;;16.60;99.90;;;;;;5031070;28;20026;-77
2023/10/19 02:11:57;;;;;;;1.67;0.63;;;16.60;99.90;;;;;;5031505;28;20025;-77
2023/10/19 02:14:25;;;;;;;0.20;0.20;;;16.60;99.90;;;;;;5032448;28;20033;-77
2023/10/19 02:16:53;;;;;;;0.00;0.00;;;16.70;99.90;;;;;;5031378;28;20469;-76
2023/10/19 02:19:20;;;;;;;0.00;0.00;;;16.60;99.90;;;;;;5031294;28;20057;-77
2023/10/19 02:22:11;;;;;;;0.52;0.15;;;16.70;99.90;;;;;;5031181;28;20076;-74
2023/10/19 02:24:38;;;;;;;0.10;0.10;;;16.50;99.90;;;;;;5014813;28;20026;-74
2023/10/19 02:27:04;;;;;;;0.17;0.17;;;16.60;99.90;;;;;;5032420;28;20033;-74
2023/10/19 02:29:31;;;;;;;2.22;0.15;;;16.60;99.90;;;;;;5032340;28;20044;-74
2023/10/19 02:32:01;;;;;;;0.10;0.10;;;16.60;99.90;;;;;;5031275;28;20033;-74
2023/10/19 02:34:27;;;;;;;8.98;0.63;;;16.60;99.90;;;;;;5032026;28;20040;-74
2023/10/19 02:36:53;;;;;;;0.00;0.00;;;16.60;99.90;;;;;;5014394;28;20108;-74
2023/10/19 02:39:21;;;;;;;0.25;0.20;;;16.60;99.90;;;;;;5031218;28;20026;-74
2023/10/19 02:41:48;;;;;;;0.00;0.00;;;16.60;99.90;;;;;;5032431;28;20053;-74
2023/10/19 02:44:25;;;;;;;0.00;0.00;;;16.50;99.90;;;;;;5032376;28;20099;-75
2023/10/19 02:47:05;;;;;;;6.63;1.08;;;16.50;99.90;;;;;;5030850;28;20029;-74
2023/10/19 02:49:31;;;;;;;0.00;0.00;;;16.40;99.90;;;;;;5032776;28;20033;-74
2023/10/19 02:52:04;;;;;;;2.40;0.43;;;16.30;99.90;;;;;;5035876;28;20060;-73
2023/10/19 02:54:32;;;;;;;1.55;0.10;;;16.40;99.90;;;;;;5036103;28;20091;-74
2023/10/19 02:56:59;;;;;;;2.55;1.02;;;16.30;99.90;;;;;;5034485;28;20052;-74
2023/10/19 02:59:28;;;;;;;0.00;0.00;;;16.20;99.90;;;;;;5034741;28;20026;-75
2023/10/19 03:02:06;;;;;;;10.82;0.52;;;16.20;99.90;;;;;;5035765;28;20079;-77
2023/10/19 03:04:35;;;;;;;0.00;0.00;;;16.20;99.90;;;;;;5035963;28;20033;-77
2023/10/19 03:07:04;;;;;;;0.30;0.28;;;16.10;99.90;;;;;;5035447;28;20072;-77
2023/10/19 03:09:32;;;;;;;2.70;1.58;;;16.10;99.90;;;;;;5017767;28;20458;-77
2023/10/19 03:12:05;;;;;;;0.00;0.00;;;16.20;99.90;;;;;;5018097;28;20040;-77
2023/10/19 03:14:31;;;;;;;0.13;0.13;;;16.20;99.90;;;;;;5035749;28;20064;-76
2023/10/19 03:16:59;;;;;;;0.00;0.00;;;16.10;99.90;;;;;;5034454;28;20485;-77
2023/10/19 03:19:25;;;;;;;0.10;0.10;;;16.10;99.90;;;;;;5035626;28;20025;-77
2023/10/19 03:21:51;;;;;;;0.90;0.55;;;16.00;99.90;;;;;;5034261;28;20057;-77
2023/10/19 03:29:59;;;;;;;0.00;0.00;;;16.20;99.90;;;;;;5035342;28;20382;-77
2023/10/19 03:32:32;;;;;;;0.00;0.00;;;16.20;99.90;;;;;;5034050;28;20036;-77
2023/10/19 03:35:01;;;;;;;0.00;0.00;;;16.20;99.90;;;;;;5034935;28;20466;-76
2023/10/19 03:37:31;;;;;;;0.55;0.35;;;16.10;99.90;;;;;;5035439;28;20025;-77
2023/10/19 03:39:58;;;;;;;6.03;0.38;;;16.20;99.90;;;;;;5033890;28;20104;-77
2023/10/19 03:42:40;;;;;;;1.33;0.47;;;16.20;99.90;;;;;;5033910;28;20040;-77
2023/10/19 03:45:12;;;;;;;0.17;0.15;;;16.10;99.90;;;;;;5033621;28;20469;-76
2023/10/19 03:47:39;;;;;;;0.00;0.00;;;16.20;99.90;;;;;;5033727;28;20029;-77
2023/10/19 03:50:06;;;;;;;2.83;0.52;;;16.40;99.90;;;;;;5034631;28;20496;-77
2023/10/19 03:52:37;;;;;;;0.15;0.15;;;16.40;99.90;;;;;;5033795;28;20025;-77
2023/10/19 03:55:06;;;;;;;0.03;0.03;;;16.30;99.90;;;;;;5033385;28;20033;-77
2023/10/19 03:57:35;;;;;;;3.10;0.50;;;16.20;99.90;;;;;;5033285;28;20059;-77
2023/10/19 04:00:00;;;;;;;0.08;0.08;;;16.20;99.90;;;;;;5033009;28;20037;-77
2023/10/19 04:02:29;;;;;;;4.47;0.70;;;16.20;99.90;;;;;;5033500;28;20515;-77
2023/10/19 04:04:57;;;;;;;1.73;0.65;;;16.20;99.90;;;;;;5033855;28;20037;-77
2023/10/19 04:07:26;;;;;;;1.60;0.80;;;16.10;99.90;;;;;;5022329;28;20017;-75
2023/10/19 04:12:30;;;;;;;0.10;0.10;;;16.30;99.90;;;;;;5034435;28;20063;-74
2023/10/19 04:14:56;;;;;;;0.47;0.47;;;16.30;99.90;;;;;;5034269;28;20428;-74
2023/10/19 04:17:23;;;;;;;0.00;0.00;;;16.30;99.90;;;;;;5034596;28;20033;-75
2023/10/19 04:19:51;;;;;;;3.00;0.38;;;16.20;99.90;;;;;;5034260;28;20049;-76
2023/10/19 04:22:23;;;;;;;1.33;0.57;;;16.20;99.90;;;;;;5034368;28;20045;-75
2023/10/19 04:24:50;;;;;;;0.20;0.20;;;16.30;99.90;;;;;;5034022;28;20526;-77
2023/10/19 04:27:16;;;;;;;0.50;0.17;;;16.30;99.90;;;;;;5034195;28;20031;-75
2023/10/19 04:29:44;;;;;;;0.10;0.10;;;16.20;99.90;;;;;;5034283;28;20397;-76
2023/10/19 04:32:11;;;;;;;5.97;0.93;;;16.40;99.90;;;;;;5034295;28;20098;-74
2023/10/19 04:34:37;;;;;;;0.10;0.10;;;16.40;99.90;;;;;;5033688;28;20051;-74
2023/10/19 04:37:03;;;;;;;0.20;0.20;;;16.40;99.90;;;;;;5034108;28;20028;-74
2023/10/19 04:39:30;;;;;;;0.10;0.10;;;16.40;99.90;;;;;;5033834;28;20021;-74
2023/10/19 04:41:56;;;;;;;0.00;0.00;;;16.40;99.90;;;;;;5034026;28;20373;-76
2023/10/19 04:44:22;;;;;;;0.08;0.08;;;16.40;99.90;;;;;;5033850;28;20084;-77
2023/10/19 04:46:48;;;;;;;1.77;0.63;;;16.40;99.90;;;;;;5033588;28;20117;-74
2023/10/19 04:49:16;;;;;;;0.00;0.00;;;16.50;99.90;;;;;;5034002;28;20522;-75
2023/10/19 04:51:43;;;;;;;0.28;0.10;;;16.50;99.90;;;;;;5015851;28;20116;-73
2023/10/19 04:54:09;;;;;;;2.85;0.52;;;16.40;99.90;;;;;;5032650;28;20386;-73
2023/10/19 04:56:36;;;;;;;8.40;1.35;;;16.50;99.90;;;;;;5033677;28;20021;-75
2023/10/19 04:59:03;;;;;;;0.20;0.20;;;16.40;99.90;;;;;;5033603;28;20033;-74
2023/10/19 05:01:29;;;;;;;0.00;0.00;;;16.40;99.90;;;;;;5033060;28;20045;-74
2023/10/19 05:03:54;;;;;;;2.53;0.55;;;16.40;99.90;;;;;;5033634;28;20075;-76
2023/10/19 05:06:22;;;;;;;0.20;0.20;;;16.40;99.90;;;;;;5033072;28;20024;-74
2023/10/19 05:08:47;;;;;;;0.00;0.00;;;16.40;99.90;;;;;;5033311;28;20025;-75
2023/10/19 05:11:13;;;;;;;0.00;0.00;;;16.30;99.90;;;;;;5033440;28;20025;-75
2023/10/19 05:13:39;;;;;;;0.10;0.10;;;16.40;99.90;;;;;;5031673;28;20013;-77
2023/10/19 05:16:05;;;;;;;0.20;0.15;;;16.40;99.90;;;;;;5033063;28;20033;-76
2023/10/19 05:18:31;;;;;;;0.52;0.15;;;16.40;99.90;;;;;;5033428;28;20032;-75
2023/10/19 05:20:57;;;;;;;0.00;0.00;;;16.50;99.90;;;;;;5015411;28;20470;-75
2023/10/19 05:23:24;;;;;;;0.10;0.10;;;16.50;99.90;;;;;;5033301;28;20039;-77
2023/10/19 05:25:59;;;;;;;0.25;0.25;;;16.60;99.90;;;;;;5031846;28;20044;-76
2023/10/19 05:28:25;;;;;;;1.25;0.70;;;16.60;99.90;;;;;;5015996;28;20087;-75
2023/10/19 05:30:51;;;;;;;0.20;0.20;;;16.60;99.90;;;;;;5032343;28;20424;-77
2023/10/19 05:33:20;;;;;;;1.95;0.40;;;16.50;99.90;;;;;;5029263;28;20044;-76
2023/10/19 05:35:50;;;;;;;0.40;0.40;;;16.50;99.90;;;;;;5027662;28;20067;-76
2023/10/19 05:38:19;;;;;;;0.10;0.10;;;16.50;99.90;;;;;;5032811;28;20021;-76
2023/10/19 05:40:45;;;;;;;8.00;0.98;;;16.60;99.90;;;;;;5033251;28;20088;-76
2023/10/19 05:43:11;;;;;;;0.63;0.10;;;16.60;99.90;;;;;;5032694;28;20041;-77
2023/10/19 05:45:38;;;;;;;0.03;0.03;;;16.50;99.90;;;;;;4992379;28;20131;-76
2023/10/19 05:48:06;;;;;;;0.57;0.20;;;16.50;99.90;;;;;;5010498;28;20065;-77
2023/10/19 05:50:36;;;;;;;0.22;0.22;;;16.40;99.90;;;;;;5011794;28;20025;-76
2023/10/19 05:53:03;;;;;;;0.38;0.38;;;16.40;99.90;;;;;;5011182;28;20426;-76
2023/10/19 05:55:29;;;;;;;0.00;0.00;;;16.30;99.90;;;;;;5007892;28;20076;-75
2023/10/19 05:57:55;;;;;;;0.25;0.25;;;16.30;99.90;;;;;;5010936;28;20426;-76
2023/10/19 06:00:25;;;;;;;0.10;0.10;;;16.40;99.90;;;;;;5012380;28;20133;-74
2023/10/19 06:02:57;;;;;;;1.67;1.17;;;16.40;99.90;;;;;;5009985;28;20541;-77
2023/10/19 06:05:23;;;;;;;8.27;0.50;;;16.40;99.90;;;;;;5012125;28;20041;-77
2023/10/19 06:07:50;;;;;;;0.38;0.20;;;16.40;99.90;;;;;;5012096;28;20066;-77
2023/10/19 06:10:22;;;;;;;0.73;0.73;;;16.40;99.90;;;;;;5015063;28;20104;-77
2023/10/19 06:12:51;;;;;;;;;;;16.50;99.90;;;;;;5023263;28;20049;-76
2023/10/19 06:15:20;;;;;;;0.20;0.20;;;16.40;99.90;;;;;;5021619;28;19909;-77
2023/10/19 06:17:47;;;;;;;0.68;0.25;;;16.40;99.90;;;;;;5006910;28;20088;-75
2023/10/19 06:20:24;;;;;;;0.68;0.20;;;16.50;99.90;;;;;;5019767;28;20022;-77
2023/10/19 06:22:55;;;;;;;0.10;0.10;;;16.50;99.90;;;;;;5014451;28;20094;-77
2023/10/19 06:25:24;;;;;;;4.50;1.65;;;16.50;99.90;;;;;;5023910;28;20018;-77
2023/10/19 06:27:51;;;;;;;0.43;0.43;;;16.50;99.90;;;;;;5031291;28;20030;-76
2023/10/19 06:30:18;;;;;;;0.10;0.10;;;16.50;99.90;;;;;;5016454;28;20014;-78
2023/10/19 06:32:50;;;;;;;5.65;1.27;;;16.50;99.90;;;;;;5022611;28;20025;-76
2023/10/19 06:35:17;;;;;;;0.08;0.08;;;16.50;99.90;;;;;;5013091;28;20018;-77
2023/10/19 06:37:44;;;;;;;0.75;0.75;;;16.60;99.90;;;;;;5025860;28;20056;-77
2023/10/19 06:40:14;;;;;;;0.55;0.28;;;16.70;99.90;;;;;;5020314;28;20068;-77
2023/10/19 06:42:45;;;;;;;1.98;1.88;;;16.60;99.90;;;;;;5013502;28;20473;-73
2023/10/19 06:45:14;;;;;;;0.90;0.80;;;16.50;99.90;;;;;;5014531;28;20041;-77
2023/10/19 06:47:42;;;;;;;0.30;0.30;;;16.50;99.90;;;;;;5003256;28;20033;-78
2023/10/19 06:50:10;;;;;;;0.13;0.13;;;16.50;99.90;;;;;;5015674;28;20452;-77
2023/10/19 06:52:37;;;;;;;0.00;0.00;;;16.60;99.90;;;;;;5014458;28;20367;-77
2023/10/19 06:55:04;;;;;;;0.10;0.10;;;16.50;99.90;;;;;;5013820;28;20489;-77
2023/10/19 06:57:34;;;;;;;0.10;0.10;;;16.50;99.90;;;;;;5015120;28;20021;-77
2023/10/19 07:00:10;;;;;;;0.47;0.20;;;16.50;99.90;;;;;;5014689;28;20033;-77
2023/10/19 07:02:36;;;;;;;4.28;0.68;;;16.50;99.90;;;;;;5015427;28;20073;-77
2023/10/19 07:05:03;;;;;;;0.00;0.00;;;16.40;99.90;;;;;;5015198;28;20466;-77
2023/10/19 07:07:29;;;;;;;0.00;0.00;;;16.50;99.90;;;;;;5015458;28;20387;-77
2023/10/19 07:09:55;;;;;;;0.30;0.30;;;16.50;99.90;;;;;;5017702;28;20101;-77
2023/10/19 07:12:21;;;;;;;0.00;0.00;;;16.60;99.90;;;;;;5023721;28;20104;-77
2023/10/19 07:14:47;;;;;;;0.03;0.03;;;16.60;99.90;;;;;;5027681;28;20083;-76
2023/10/19 07:17:12;;;;;;;0.10;0.10;;;16.60;99.90;;;;;;5029010;28;20072;-76
2023/10/19 07:19:43;;;;;;;0.10;0.10;;;16.70;99.90;;;;;;5026784;28;20509;-76
2023/10/19 07:22:09;;;;;;;2.85;1.02;;;16.70;99.90;;;;;;5018492;28;20065;-77
2023/10/19 07:24:37;;;;;;;0.50;0.50;;;16.80;99.90;;;;;;5025208;28;20030;-77
2023/10/19 07:27:04;;;;;;;0.10;0.10;;;16.80;99.90;;;;;;5024470;28;20025;-77
2023/10/19 07:29:31;;;;;;;0.20;0.20;;;16.80;99.90;;;;;;5024516;28;20034;-77
2023/10/19 07:31:58;;;;;;;1.05;0.95;;;17.00;99.90;;;;;;5010320;28;20509;-75
2023/10/19 07:34:28;;;;;;;0.03;0.03;;;17.00;99.90;;;;;;5014830;28;20065;-78
2023/10/19 07:36:58;;;;;;;9.40;0.55;;;17.00;99.90;;;;;;5013861;28;20021;-71
2023/10/19 07:39:26;;;;;;;0.00;0.00;;;16.90;99.90;;;;;;5013491;28;20491;-78
2023/10/19 07:41:52;;;;;;;2.10;0.45;;;17.00;99.90;;;;;;5014313;28;20445;-78
2023/10/19 07:44:18;;;;;;;4.57;0.70;;;17.10;99.90;;;;;;5015170;28;20056;-78
2023/10/19 07:46:44;;;;;;;21.40;1.70;;;17.10;99.90;;;;;;5015154;28;20136;-77
2023/10/19 07:49:14;;;;;;;0.00;0.00;;;17.10;99.90;;;;;;5015149;28;20026;-78
2023/10/19 07:51:45;;;;;;;0.10;0.10;;;17.10;99.90;;;;;;5015132;28;20557;-78
2023/10/19 07:54:12;;;;;;;0.00;0.00;;;17.00;99.90;;;;;;5013766;28;20030;-78
2023/10/19 07:56:38;;;;;;;2.13;0.70;;;17.00;99.90;;;;;;5013360;28;20014;-78
2023/10/19 07:59:03;;;;;;;5.43;0.35;;;17.00;99.90;;;;;;5015040;28;20083;-78
2023/10/19 08:01:29;;;;;;;4.03;0.50;;;17.10;99.90;;;;;;5014707;28;20406;-78
2023/10/19 08:03:55;;;;;;;0.00;0.00;;;17.10;99.90;;;;;;5004606;28;20380;-78
2023/10/19 08:06:20;;;;;;;3.10;0.15;;;17.20;99.90;;;;;;5014148;28;20018;-78
2023/10/19 08:08:46;;;;;;;7.15;0.70;;;17.20;99.90;;;;;;5016816;28;20056;-77
2023/10/19 08:11:12;;;;;;;4.55;0.80;;;17.20;99.90;;;;;;5034195;28;20032;-78
2023/10/19 08:13:39;;;;;;;4.47;2.08;;;17.20;99.90;;;;;;5034559;28;20081;-78
2023/10/19 08:16:07;;;;;;;0.00;0.00;;;17.10;99.90;;;;;;5034398;28;20009;-77
2023/10/19 08:18:35;;;;;;;0.43;0.43;;;17.10;99.90;;;;;;5033304;28;20410;-77
2023/10/19 08:21:04;;;;;;;0.90;0.73;;;17.10;99.90;;;;;;5034201;28;20070;-77
2023/10/19 08:23:31;;;;;;;6.82;0.80;;;17.20;99.90;;;;;;5033118;28;20548;-78
2023/10/19 08:25:58;;;;;;;13.13;0.68;;;17.30;99.90;;;;;;5033779;28;20063;-78
2023/10/19 08:28:24;;;;;;;0.00;0.00;;;17.30;99.90;;;;;;5034670;28;20029;-79
2023/10/19 08:31:11;;;;;;;0.00;0.00;;;17.30;99.90;;;;;;5034106;28;20033;-78
2023/10/19 08:33:38;;;;;;;8.55;1.60;;;17.30;99.90;;;;;;5033996;28;20099;-78
2023/10/19 08:36:05;;;;;;;0.80;0.80;;;17.40;99.90;;;;;;5033979;28;20026;-78
2023/10/19 08:38:30;;;;;;;0.00;0.00;;;17.60;99.90;;;;;;5029803;28;20038;-79
2023/10/19 08:40:57;;;;;;;1.38;0.55;;;17.50;99.90;;;;;;5029016;28;20075;-79
2023/10/19 08:43:24;;;;;;;3.30;0.35;;;17.40;99.90;;;;;;5033866;28;20116;-79
2023/10/19 08:45:50;;;;;;;5.47;0.47;;;17.30;99.90;;;;;;5034048;28;20033;-79
2023/10/19 08:48:16;;;;;;;0.20;0.20;;;17.30;99.90;;;;;;5016351;28;20466;-79
2023/10/19 08:50:43;;;;;;;4.70;1.40;;;17.50;99.90;;;;;;5033812;28;20033;-78
2023/10/19 08:53:09;;;;;;;2.72;0.55;;;17.60;99.90;;;;;;5033803;28;20041;-79
2023/10/19 08:55:36;;;;;;;7.35;0.50;;;17.80;99.90;;;;;;5033385;28;20080;-78
2023/10/19 08:58:04;;;;;;;0.75;0.55;;;17.90;99.90;;;;;;5033732;28;20037;-78
2023/10/19 09:00:46;;;;;;;0.35;0.35;;;17.90;99.90;;;;;;5031518;28;20024;-78
2023/10/19 09:03:13;;;;;;;0.00;0.00;;;18.10;99.90;;;;;;5033486;28;20056;-78
2023/10/19 09:05:40;;;;;;;0.10;0.10;;;18.20;99.90;;;;;;5033485;28;20021;-78
2023/10/19 09:08:07;;;;;;;1.40;0.30;;;18.40;99.90;;;;;;5031899;28;20040;-77
2023/10/19 09:10:36;;;;;;;0.75;0.50;;;18.50;99.90;;;;;;5033775;28;20034;-79
2023/10/19 09:13:12;;;;;;;5.53;0.55;;;18.60;99.90;;;;;;5033540;28;20021;-79
2023/10/19 09:15:39;;;;;;;3.67;1.10;;;18.40;99.90;;;;;;5033553;28;20029;-78
2023/10/19 09:18:22;;;;;;;2.10;0.68;;;18.40;99.90;;;;;;5033301;28;20029;-79
2023/10/19 09:20:53;;;;;;;1.95;0.57;;;18.10;99.90;;;;;;5033599;28;20385;-78
2023/10/19 09:23:21;;;;;;;1.10;0.50;;;18.00;99.90;;;;;;5033096;28;20037;-78
2023/10/19 09:25:49;;;;;;;0.15;0.15;;;18.00;99.90;;;;;;5033112;28;20029;-79
2023/10/19 09:28:14;;;;;;;0.00;0.00;;;18.10;99.90;;;;;;5031803;28;20112;-77
2023/10/19 09:30:42;;;;;;;0.98;0.20;;;18.10;99.90;;;;;;5032942;28;20101;-77
2023/10/19 09:33:09;;;;;;;0.00;0.00;;;18.10;99.90;;;;;;5031850;28;20517;-78
2023/10/19 09:35:37;;;;;;;0.00;0.00;;;18.10;99.90;;;;;;5033169;28;20026;-77
2023/10/19 09:38:06;;;;;;;1.23;0.55;;;18.10;99.90;;;;;;5032659;28;20032;-77
2023/10/19 09:40:33;;;;;;;0.25;0.25;;;18.10;99.90;;;;;;5033109;28;20116;-77
2023/10/19 09:43:06;;;;;;;7.78;2.80;;;18.10;99.90;;;;;;5032732;28;20519;-78
2023/10/19 09:45:39;;;;;;;3.75;0.38;;;18.20;99.90;;;;;;5033137;28;20083;-78
2023/10/19 09:48:07;;;;;;;0.00;0.00;;;18.20;99.90;;;;;;5032690;28;20033;-77
2023/10/19 09:50:34;;;;;;;0.52;0.52;;;18.10;99.90;;;;;;5033038;28;20018;-78
2023/10/19 09:53:02;;;;;;;7.28;1.48;;;18.00;99.90;;;;;;5032415;28;20026;-78
2023/10/19 09:55:38;;;;;;;3.30;1.45;;;18.00;99.90;;;;;;5032955;28;20033;-77
2023/10/19 09:58:16;;;;;;;6.18;0.82;;;18.00;99.90;;;;;;5032128;28;20033;-77
2023/10/19 10:00:49;;;;;;;0.00;0.00;;;18.00;99.90;;;;;;5032760;28;20026;-78
2023/10/19 10:03:51;;;;;;;2.72;0.70;;;18.20;99.90;;;;;;5032143;28;20120;-77
2023/10/19 10:06:37;;;;;;;;;;;18.00;99.90;;;;;;5014478;28;20394;-77
2023/10/19 10:09:03;;;;;;;0.00;0.00;;;18.00;99.90;;;;;;5021433;28;19909;-77
2023/10/19 10:11:29;;;;;;;0.20;0.20;;;18.10;99.90;;;;;;5032793;28;20550;-77
2023/10/19 10:13:57;;;;;;;0.20;0.20;;;18.10;99.90;;;;;;5031340;28;20101;-77
2023/10/19 10:16:25;;;;;;;0.50;0.50;;;18.00;99.90;;;;;;5032539;28;20024;-77
2023/10/19 10:18:59;;;;;;;0.00;0.00;;;18.00;99.90;;;;;;5032430;28;20025;-77
2023/10/19 10:21:26;;;;;;;0.40;0.40;;;17.90;99.90;;;;;;5032327;28;20037;-78
2023/10/19 10:24:00;;;;;;;0.08;0.08;;;17.90;99.90;;;;;;5032340;28;20038;-77
2023/10/19 10:26:37;;;;;;;0.10;0.10;;;17.90;99.90;;;;;;5032397;28;20053;-77
2023/10/19 10:29:13;;;;;;;2.83;1.25;;;17.90;99.90;;;;;;5032883;28;20052;-77
2023/10/19 10:31:46;;;;;;;0.52;0.17;;;18.00;99.90;;;;;;5031195;28;20539;-78
2023/10/19 10:34:39;;;;;;;33.05;1.10;;;18.00;99.90;;;;;;5032172;28;20049;-78
2023/10/19 10:37:10;;;;;;;1.17;0.75;;;18.00;99.90;;;;;;5032152;28;20038;-77
2023/10/19 10:39:38;;;;;;;0.00;0.00;;;18.20;99.90;;;;;;5031195;28;20116;-78
2023/10/19 10:42:09;;;;;;;0.50;0.50;;;18.50;99.90;;;;;;5031205;28;20029;-77
2023/10/19 10:44:45;;;;;;;0.08;0.08;;;18.50;99.90;;;;;;5031919;28;20029;-77
2023/10/19 10:47:24;;;;;;;0.55;0.55;;;18.70;99.90;;;;;;5032532;28;20052;-78
2023/10/19 10:49:51;;;;;;;0.00;0.00;;;19.00;99.90;;;;;;5032026;28;20109;-77
2023/10/19 10:52:33;;;;;;;0.28;0.28;;;19.60;99.90;;;;;;5032433;28;20017;-78
2023/10/19 10:55:07;;;;;;;0.55;0.45;;;19.80;99.90;;;;;;5031984;28;20621;-78
2023/10/19 10:57:33;;;;;;;0.77;0.77;;;19.80;99.90;;;;;;5032499;28;20022;-77
2023/10/19 11:00:15;;;;;;;1.10;0.45;;;19.50;99.90;;;;;;5032024;28;20466;-78
2023/10/19 11:02:46;;;;;;;3.33;0.25;;;19.40;99.90;;;;;;5032379;28;20082;-79
2023/10/19 11:05:13;;;;;;;5.83;0.73;;;19.30;99.90;;;;;;5030293;28;20026;-79
2023/10/19 11:07:40;;;;;;;0.10;0.10;;;19.00;99.90;;;;;;5031084;28;20026;-78
2023/10/19 11:10:06;;;;;;;11.40;1.40;;;18.90;99.90;;;;;;5032090;28;20104;-79
2023/10/19 11:12:32;;;;;;;0.00;0.00;;;18.90;99.90;;;;;;5035793;28;20136;-79
2023/10/19 11:15:00;;;;;;;0.10;0.10;;;18.70;99.90;;;;;;5035254;28;20025;-75
2023/10/19 11:17:31;;;;;;;0.08;0.08;;;18.70;99.90;;;;;;5033299;28;20037;-78
2023/10/19 11:19:58;;;;;;;0.75;0.73;;;18.70;99.90;;;;;;5023336;28;20030;-71
2023/10/19 11:22:27;;;;;;;1.55;0.20;;;18.70;99.90;;;;;;5015420;28;20022;-74
2023/10/19 11:24:54;;;;;;;0.00;0.00;;;18.70;99.90;;;;;;5014447;28;20029;-77
2023/10/19 11:27:27;;;;;;;0.98;0.55;;;18.50;99.90;;;;;;5013925;28;20152;-78
2023/10/19 11:30:07;;;;;;;0.38;0.22;;;18.50;99.90;;;;;;5015311;28;20033;-78
2023/10/19 11:32:39;;;;;;;0.13;0.13;;;18.50;99.90;;;;;;5015486;28;20040;-79
2023/10/19 11:35:09;;;;;;;0.10;0.10;;;18.50;99.90;;;;;;5015113;28;20022;-79
2023/10/19 11:38:05;;;;;;;8.98;0.47;;;18.40;99.90;;;;;;5015504;28;20065;-78
2023/10/19 11:40:31;;;;;;;1.10;0.70;;;18.60;99.90;;;;;;4993429;28;20042;-79
2023/10/19 11:42:57;;;;;;;0.05;0.05;;;18.50;99.90;;;;;;5015067;28;20037;-79
2023/10/19 11:45:23;;;;;;;0.57;0.32;;;18.40;99.90;;;;;;5015125;28;20079;-79
2023/10/19 11:47:50;;;;;;;0.05;0.05;;;18.20;99.90;;;;;;5014825;28;20088;-79
2023/10/19 11:50:18;;;;;;;0.00;0.00;;;18.20;99.90;;;;;;5015179;28;20022;-79
2023/10/19 11:52:45;;;;;;;0.00;0.00;;;18.30;99.90;;;;;;5014927;28;20030;-79
2023/10/19 11:55:15;;;;;;;0.00;0.00;;;18.40;99.90;;;;;;5015036;28;20105;-79
2023/10/19 11:57:43;;;;;;;0.80;0.43;;;18.50;99.90;;;;;;5015026;28;20112;-79
2023/10/19 12:00:23;;;;;;;0.10;0.10;;;18.40;99.90;;;;;;5013790;28;20026;-79
2023/10/19 12:02:49;;;;;;;0.45;0.45;;;18.40;99.90;;;;;;5019717;28;20034;-80
2023/10/19 12:05:15;;;;;;;0.00;0.00;;;18.40;99.90;;;;;;5013939;28;20076;-79
2023/10/19 12:07:41;;;;;;;0.10;0.10;;;18.20;99.90;;;;;;5014839;28;20032;-79
2023/10/19 12:10:08;;;;;;;0.00;0.00;;;18.20;99.90;;;;;;5028328;28;20026;-80
2023/10/19 12:12:35;;;;;;;0.25;0.25;;;18.20;99.90;;;;;;5033486;28;20398;-79
2023/10/19 12:15:02;;;;;;;0.00;0.00;;;18.10;99.90;;;;;;5034605;28;20037;-79
2023/10/19 12:17:29;;;;;;;0.55;0.38;;;18.20;99.90;;;;;;5034301;28;20020;-79
2023/10/19 12:19:56;;;;;;;0.15;0.13;;;18.20;99.90;;;;;;5034368;28;20497;-79
2023/10/19 12:22:21;;;;;;;0.00;0.00;;;18.20;99.90;;;;;;5034168;28;20083;-79
2023/10/19 12:24:48;;;;;;;1.13;0.50;;;18.30;99.90;;;;;;5034452;28;20045;-79
2023/10/19 12:27:14;;;;;;;0.00;0.00;;;18.40;99.90;;;;;;5034255;28;20014;-79
2023/10/19 12:29:40;;;;;;;0.00;0.00;;;18.40;99.90;;;;;;5033188;28;20037;-80
2023/10/19 12:32:06;;;;;;;0.05;0.05;;;18.40;99.90;;;;;;5033893;28;20025;-80
2023/10/19 12:34:33;;;;;;;1.92;0.73;;;18.40;99.90;;;;;;5033748;28;20029;-79
2023/10/19 12:36:59;;;;;;;4.53;0.68;;;18.20;99.90;;;;;;5033932;28;20474;-79
2023/10/19 12:39:45;;;;;;;1.35;0.45;;;18.20;99.90;;;;;;5030628;28;20022;-79
2023/10/19 12:42:11;;;;;;;2.17;0.35;;;18.10;99.90;;;;;;5015334;28;20034;-80
2023/10/19 12:44:41;;;;;;;5.30;0.60;;;18.10;99.90;;;;;;5031246;28;20090;-79
2023/10/19 12:47:12;;;;;;;0.08;0.08;;;18.10;99.90;;;;;;5033726;28;20026;-79
2023/10/19 12:49:40;;;;;;;0.00;0.00;;;18.20;99.90;;;;;;5033972;28;20120;-80
2023/10/19 12:52:10;;;;;;;0.00;0.00;;;18.20;99.90;;;;;;5033869;28;20033;-80
2023/10/19 12:54:37;;;;;;;0.00;0.00;;;18.30;99.90;;;;;;5033607;28;20037;-79
2023/10/19 12:57:09;;;;;;;5.50;2.67;;;18.30;99.90;;;;;;5033722;28;20018;-79
2023/10/19 12:59:37;;;;;;;1.45;0.52;;;18.30;99.90;;;;;;5032424;28;20043;-79
2023/10/19 13:02:04;;;;;;;2.22;2.05;;;18.30;99.90;;;;;;5033480;28;20030;-80
2023/10/19 13:04:33;;;;;;;11.52;1.08;;;18.30;99.90;;;;;;5033574;28;20037;-80
2023/10/19 13:06:59;;;;;;;0.00;0.00;;;18.30;99.90;;;;;;5033439;28;20018;-80
2023/10/19 13:09:30;;;;;;;0.10;0.10;;;18.40;99.90;;;;;;5033744;28;20450;-79
2023/10/19 13:12:00;;;;;;;0.05;0.05;;;18.60;99.90;;;;;;5026478;28;20060;-79
2023/10/19 13:14:26;;;;;;;0.00;0.00;;;18.80;99.90;;;;;;5033314;28;20091;-79
2023/10/19 13:16:54;;;;;;;0.30;0.30;;;19.00;99.90;;;;;;5033297;28;20531;-78